sensor_id;sensor_type;location;lat;lon;timestamp;P1;durP1;ratioP1;P2;durP2;ratioP2
25127;SDS011;13107;51.304;6.866;2023-03-21T00:00:23;9.27;;;3.05;;
25127;SDS011;13107;51.304;6.866;2023-03-21T00:04:25;8.65;;;2.97;;
25127;SDS011;13107;51.304;6.866;2023-03-21T00:08:38;10.07;;;3.65;;
25127;SDS011;13107;51.304;6.866;2023-03-21T00:12:40;10.00;;;3.58;;
25127;SDS011;13107;51.304;6.866;2023-03-21T00:16:42;9.93;;;3.47;;
25127;SDS011;13107;51.304;6.866;2023-03-21T00:20:54;15.80;;;3.83;;
25127;SDS011;13107;51.304;6.866;2023-03-21T00:25:20;11.68;;;3.83;;
25127;SDS011;13107;51.304;6.866;2023-03-21T00:29:22;10.73;;;3.50;;
25127;SDS011;13107;51.304;6.866;2023-03-21T00:33:24;8.40;;;3.67;;
25127;SDS011;13107;51.304;6.866;2023-03-21T00:37:25;16.15;;;4.05;;
25127;SDS011;13107;51.304;6.866;2023-03-21T00:41:28;10.25;;;3.53;;
25127;SDS011;13107;51.304;6.866;2023-03-21T00:45:45;12.85;;;3.90;;
25127;SDS011;13107;51.304;6.866;2023-03-21T00:49:47;9.82;;;3.78;;
25127;SDS011;13107;51.304;6.866;2023-03-21T00:53:49;9.40;;;3.58;;
25127;SDS011;13107;51.304;6.866;2023-03-21T00:57:51;13.45;;;4.15;;
25127;SDS011;13107;51.304;6.866;2023-03-21T01:02:02;14.73;;;4.30;;
25127;SDS011;13107;51.304;6.866;2023-03-21T01:06:10;8.35;;;3.53;;
25127;SDS011;13107;51.304;6.866;2023-03-21T01:10:13;13.77;;;4.70;;
25127;SDS011;13107;51.304;6.866;2023-03-21T01:14:16;12.13;;;4.20;;
25127;SDS011;13107;51.304;6.866;2023-03-21T01:18:24;15.05;;;4.72;;
25127;SDS011;13107;51.304;6.866;2023-03-21T01:22:28;13.00;;;4.70;;
25127;SDS011;13107;51.304;6.866;2023-03-21T01:26:30;13.82;;;5.00;;
25127;SDS011;13107;51.304;6.866;2023-03-21T01:30:32;16.05;;;4.90;;
25127;SDS011;13107;51.304;6.866;2023-03-21T01:34:42;11.88;;;4.80;;
25127;SDS011;13107;51.304;6.866;2023-03-21T01:38:43;11.30;;;4.87;;
25127;SDS011;13107;51.304;6.866;2023-03-21T01:42:46;14.30;;;5.20;;
25127;SDS011;13107;51.304;6.866;2023-03-21T01:46:49;15.05;;;5.47;;
25127;SDS011;13107;51.304;6.866;2023-03-21T01:51:09;15.45;;;5.43;;
25127;SDS011;13107;51.304;6.866;2023-03-21T01:55:13;17.12;;;5.87;;
25127;SDS011;13107;51.304;6.866;2023-03-21T01:59:20;11.52;;;5.53;;
25127;SDS011;13107;51.304;6.866;2023-03-21T02:03:28;12.60;;;5.82;;
25127;SDS011;13107;51.304;6.866;2023-03-21T02:07:38;15.80;;;6.60;;
25127;SDS011;13107;51.304;6.866;2023-03-21T02:11:41;17.95;;;6.18;;
25127;SDS011;13107;51.304;6.866;2023-03-21T02:15:56;19.25;;;6.15;;
25127;SDS011;13107;51.304;6.866;2023-03-21T02:39:15;17.48;;;6.50;;
25127;SDS011;13107;51.304;6.866;2023-03-21T02:43:30;10.63;;;6.05;;
25127;SDS011;13107;51.304;6.866;2023-03-21T02:47:58;17.58;;;7.07;;
25127;SDS011;13107;51.304;6.866;2023-03-21T02:52:04;14.77;;;6.57;;
25127;SDS011;13107;51.304;6.866;2023-03-21T02:56:23;12.82;;;5.75;;
25127;SDS011;13107;51.304;6.866;2023-03-21T03:00:27;15.25;;;6.50;;
25127;SDS011;13107;51.304;6.866;2023-03-21T03:04:32;12.50;;;6.00;;
25127;SDS011;13107;51.304;6.866;2023-03-21T03:13:19;12.98;;;6.00;;
25127;SDS011;13107;51.304;6.866;2023-03-21T03:17:49;18.80;;;6.40;;
25127;SDS011;13107;51.304;6.866;2023-03-21T03:21:57;13.32;;;6.05;;
25127;SDS011;13107;51.304;6.866;2023-03-21T03:30:08;12.95;;;6.25;;
25127;SDS011;13107;51.304;6.866;2023-03-21T03:34:13;16.05;;;6.28;;
25127;SDS011;13107;51.304;6.866;2023-03-21T03:38:18;12.73;;;6.47;;
25127;SDS011;13107;51.304;6.866;2023-03-21T03:42:29;15.43;;;6.35;;
25127;SDS011;13107;51.304;6.866;2023-03-21T03:54:54;19.92;;;6.15;;
25127;SDS011;13107;51.304;6.866;2023-03-21T03:58:56;12.00;;;5.20;;
25127;SDS011;13107;51.304;6.866;2023-03-21T04:02:58;11.98;;;5.43;;
25127;SDS011;13107;51.304;6.866;2023-03-21T04:07:00;11.48;;;5.18;;
25127;SDS011;13107;51.304;6.866;2023-03-21T04:11:03;12.82;;;5.25;;
25127;SDS011;13107;51.304;6.866;2023-03-21T04:15:06;16.05;;;5.90;;
25127;SDS011;13107;51.304;6.866;2023-03-21T04:19:11;15.77;;;6.12;;
25127;SDS011;13107;51.304;6.866;2023-03-21T04:23:13;14.02;;;5.25;;
25127;SDS011;13107;51.304;6.866;2023-03-21T04:27:15;16.42;;;5.53;;
25127;SDS011;13107;51.304;6.866;2023-03-21T04:31:16;13.02;;;5.32;;
25127;SDS011;13107;51.304;6.866;2023-03-21T04:35:26;10.95;;;4.90;;
25127;SDS011;13107;51.304;6.866;2023-03-21T04:39:28;12.25;;;5.68;;
25127;SDS011;13107;51.304;6.866;2023-03-21T04:43:30;12.05;;;5.37;;
25127;SDS011;13107;51.304;6.866;2023-03-21T04:47:32;12.27;;;5.75;;
25127;SDS011;13107;51.304;6.866;2023-03-21T04:51:34;11.73;;;5.55;;
25127;SDS011;13107;51.304;6.866;2023-03-21T04:55:36;12.15;;;5.03;;
25127;SDS011;13107;51.304;6.866;2023-03-21T04:59:39;15.90;;;5.57;;
25127;SDS011;13107;51.304;6.866;2023-03-21T05:03:40;12.70;;;5.90;;
25127;SDS011;13107;51.304;6.866;2023-03-21T05:07:42;13.98;;;6.35;;
25127;SDS011;13107;51.304;6.866;2023-03-21T05:11:44;13.77;;;5.82;;
25127;SDS011;13107;51.304;6.866;2023-03-21T05:15:46;10.93;;;6.18;;
25127;SDS011;13107;51.304;6.866;2023-03-21T05:19:47;9.43;;;5.18;;
25127;SDS011;13107;51.304;6.866;2023-03-21T05:23:50;13.82;;;6.00;;
25127;SDS011;13107;51.304;6.866;2023-03-21T05:27:54;14.82;;;5.68;;
25127;SDS011;13107;51.304;6.866;2023-03-21T05:31:56;12.40;;;6.37;;
25127;SDS011;13107;51.304;6.866;2023-03-21T05:35:58;11.60;;;6.10;;
25127;SDS011;13107;51.304;6.866;2023-03-21T05:40:01;11.82;;;5.70;;
25127;SDS011;13107;51.304;6.866;2023-03-21T05:44:04;15.40;;;6.10;;
25127;SDS011;13107;51.304;6.866;2023-03-21T05:48:06;11.63;;;5.37;;
25127;SDS011;13107;51.304;6.866;2023-03-21T05:52:08;13.43;;;5.45;;
25127;SDS011;13107;51.304;6.866;2023-03-21T05:56:10;14.52;;;5.55;;
25127;SDS011;13107;51.304;6.866;2023-03-21T06:00:12;11.90;;;5.32;;
25127;SDS011;13107;51.304;6.866;2023-03-21T06:04:15;15.30;;;5.68;;
25127;SDS011;13107;51.304;6.866;2023-03-21T06:08:16;10.40;;;5.35;;
25127;SDS011;13107;51.304;6.866;2023-03-21T06:12:19;12.40;;;5.45;;
25127;SDS011;13107;51.304;6.866;2023-03-21T06:16:21;13.27;;;5.57;;
25127;SDS011;13107;51.304;6.866;2023-03-21T06:20:23;11.98;;;5.18;;
25127;SDS011;13107;51.304;6.866;2023-03-21T06:24:25;11.85;;;5.47;;
25127;SDS011;13107;51.304;6.866;2023-03-21T06:28:27;18.30;;;6.28;;
25127;SDS011;13107;51.304;6.866;2023-03-21T06:32:29;12.85;;;5.40;;
25127;SDS011;13107;51.304;6.866;2023-03-21T06:36:30;12.07;;;4.72;;
25127;SDS011;13107;51.304;6.866;2023-03-21T06:40:32;12.93;;;5.30;;
25127;SDS011;13107;51.304;6.866;2023-03-21T06:44:34;14.93;;;5.40;;
25127;SDS011;13107;51.304;6.866;2023-03-21T06:48:36;10.73;;;5.12;;
25127;SDS011;13107;51.304;6.866;2023-03-21T06:52:39;13.93;;;6.03;;
25127;SDS011;13107;51.304;6.866;2023-03-21T06:56:41;15.75;;;5.40;;
25127;SDS011;13107;51.304;6.866;2023-03-21T07:00:42;9.98;;;5.65;;
25127;SDS011;13107;51.304;6.866;2023-03-21T07:04:44;9.98;;;5.32;;
25127;SDS011;13107;51.304;6.866;2023-03-21T07:08:46;12.07;;;5.35;;
25127;SDS011;13107;51.304;6.866;2023-03-21T07:12:48;14.15;;;5.15;;
25127;SDS011;13107;51.304;6.866;2023-03-21T07:16:49;13.60;;;5.93;;
25127;SDS011;13107;51.304;6.866;2023-03-21T07:20:51;16.62;;;5.68;;
25127;SDS011;13107;51.304;6.866;2023-03-21T07:24:53;14.50;;;5.90;;
25127;SDS011;13107;51.304;6.866;2023-03-21T07:29:05;18.02;;;6.35;;
25127;SDS011;13107;51.304;6.866;2023-03-21T07:33:07;14.57;;;6.05;;
25127;SDS011;13107;51.304;6.866;2023-03-21T07:37:08;15.07;;;6.18;;
25127;SDS011;13107;51.304;6.866;2023-03-21T07:41:11;14.80;;;6.43;;
25127;SDS011;13107;51.304;6.866;2023-03-21T07:45:13;13.23;;;5.70;;
25127;SDS011;13107;51.304;6.866;2023-03-21T07:49:22;14.45;;;5.85;;
25127;SDS011;13107;51.304;6.866;2023-03-21T07:53:23;16.00;;;5.65;;
25127;SDS011;13107;51.304;6.866;2023-03-21T07:57:25;11.20;;;5.50;;
25127;SDS011;13107;51.304;6.866;2023-03-21T08:01:27;14.13;;;6.18;;
25127;SDS011;13107;51.304;6.866;2023-03-21T08:05:29;12.90;;;5.87;;
25127;SDS011;13107;51.304;6.866;2023-03-21T08:09:35;12.60;;;6.80;;
25127;SDS011;13107;51.304;6.866;2023-03-21T08:13:37;13.90;;;5.55;;
25127;SDS011;13107;51.304;6.866;2023-03-21T08:17:40;13.93;;;6.80;;
25127;SDS011;13107;51.304;6.866;2023-03-21T08:21:46;16.70;;;6.22;;
25127;SDS011;13107;51.304;6.866;2023-03-21T08:25:50;14.73;;;6.80;;
25127;SDS011;13107;51.304;6.866;2023-03-21T08:29:55;18.10;;;7.62;;
25127;SDS011;13107;51.304;6.866;2023-03-21T08:33:56;18.98;;;8.30;;
25127;SDS011;13107;51.304;6.866;2023-03-21T08:37:58;13.82;;;7.40;;
25127;SDS011;13107;51.304;6.866;2023-03-21T08:42:02;19.85;;;6.97;;
25127;SDS011;13107;51.304;6.866;2023-03-21T08:46:05;14.65;;;7.35;;
25127;SDS011;13107;51.304;6.866;2023-03-21T08:50:08;14.70;;;7.82;;
25127;SDS011;13107;51.304;6.866;2023-03-21T08:54:18;15.82;;;7.85;;
25127;SDS011;13107;51.304;6.866;2023-03-21T08:58:21;12.23;;;7.03;;
25127;SDS011;13107;51.304;6.866;2023-03-21T09:02:23;13.05;;;8.00;;
25127;SDS011;13107;51.304;6.866;2023-03-21T09:06:25;14.57;;;7.28;;
25127;SDS011;13107;51.304;6.866;2023-03-21T09:10:27;17.48;;;7.65;;
25127;SDS011;13107;51.304;6.866;2023-03-21T09:14:30;15.32;;;7.80;;
25127;SDS011;13107;51.304;6.866;2023-03-21T09:18:33;16.20;;;8.48;;
25127;SDS011;13107;51.304;6.866;2023-03-21T09:22:50;14.07;;;7.90;;
25127;SDS011;13107;51.304;6.866;2023-03-21T09:26:52;15.60;;;8.48;;
25127;SDS011;13107;51.304;6.866;2023-03-21T09:30:54;19.40;;;8.65;;
25127;SDS011;13107;51.304;6.866;2023-03-21T09:34:59;17.10;;;7.78;;
25127;SDS011;13107;51.304;6.866;2023-03-21T09:39:00;19.48;;;8.00;;
25127;SDS011;13107;51.304;6.866;2023-03-21T09:47:20;12.07;;;6.95;;
25127;SDS011;13107;51.304;6.866;2023-03-21T09:51:30;16.23;;;7.85;;
25127;SDS011;13107;51.304;6.866;2023-03-21T09:55:37;17.23;;;7.05;;
25127;SDS011;13107;51.304;6.866;2023-03-21T09:59:41;17.23;;;7.80;;
25127;SDS011;13107;51.304;6.866;2023-03-21T10:03:43;14.80;;;7.50;;
25127;SDS011;13107;51.304;6.866;2023-03-21T10:07:48;16.50;;;7.78;;
25127;SDS011;13107;51.304;6.866;2023-03-21T10:11:58;15.40;;;7.45;;
25127;SDS011;13107;51.304;6.866;2023-03-21T10:16:14;15.45;;;7.53;;
25127;SDS011;13107;51.304;6.866;2023-03-21T10:20:21;16.42;;;7.10;;
25127;SDS011;13107;51.304;6.866;2023-03-21T10:24:30;16.00;;;7.35;;
25127;SDS011;13107;51.304;6.866;2023-03-21T10:28:36;12.73;;;7.30;;
25127;SDS011;13107;51.304;6.866;2023-03-21T10:32:53;15.85;;;6.82;;
25127;SDS011;13107;51.304;6.866;2023-03-21T10:37:00;14.18;;;7.47;;
25127;SDS011;13107;51.304;6.866;2023-03-21T10:41:03;14.77;;;8.48;;
25127;SDS011;13107;51.304;6.866;2023-03-21T10:45:05;15.57;;;7.53;;
25127;SDS011;13107;51.304;6.866;2023-03-21T10:49:16;15.00;;;6.50;;
25127;SDS011;13107;51.304;6.866;2023-03-21T10:53:26;11.25;;;6.15;;
25127;SDS011;13107;51.304;6.866;2023-03-21T10:57:32;14.25;;;6.18;;
25127;SDS011;13107;51.304;6.866;2023-03-21T11:01:38;12.18;;;6.10;;
25127;SDS011;13107;51.304;6.866;2023-03-21T11:05:42;10.25;;;5.07;;
25127;SDS011;13107;51.304;6.866;2023-03-21T11:13:55;9.52;;;5.12;;
25127;SDS011;13107;51.304;6.866;2023-03-21T11:18:17;10.70;;;5.95;;
25127;SDS011;13107;51.304;6.866;2023-03-21T11:22:20;10.70;;;5.50;;
25127;SDS011;13107;51.304;6.866;2023-03-21T11:26:28;12.75;;;5.28;;
25127;SDS011;13107;51.304;6.866;2023-03-21T11:30:33;7.80;;;4.57;;
25127;SDS011;13107;51.304;6.866;2023-03-21T11:34:53;10.23;;;4.18;;
25127;SDS011;13107;51.304;6.866;2023-03-21T11:39:45;8.68;;;4.60;;
25127;SDS011;13107;51.304;6.866;2023-03-21T11:43:29;13.73;;;4.80;;
25127;SDS011;13107;51.304;6.866;2023-03-21T11:47:34;10.47;;;4.67;;
25127;SDS011;13107;51.304;6.866;2023-03-21T11:51:39;10.30;;;4.82;;
25127;SDS011;13107;51.304;6.866;2023-03-21T12:00:23;7.10;;;4.03;;
25127;SDS011;13107;51.304;6.866;2023-03-21T12:08:56;11.57;;;4.47;;
25127;SDS011;13107;51.304;6.866;2023-03-21T12:17:29;11.73;;;4.28;;
25127;SDS011;13107;51.304;6.866;2023-03-21T12:26:23;11.77;;;4.45;;
25127;SDS011;13107;51.304;6.866;2023-03-21T12:30:31;8.30;;;4.20;;
25127;SDS011;13107;51.304;6.866;2023-03-21T12:39:20;10.25;;;4.80;;
25127;SDS011;13107;51.304;6.866;2023-03-21T12:47:48;10.60;;;4.55;;
25127;SDS011;13107;51.304;6.866;2023-03-21T12:51:57;9.73;;;4.60;;
25127;SDS011;13107;51.304;6.866;2023-03-21T12:56:18;7.55;;;4.07;;
25127;SDS011;13107;51.304;6.866;2023-03-21T13:00:32;8.00;;;4.00;;
25127;SDS011;13107;51.304;6.866;2023-03-21T13:04:46;10.77;;;4.28;;
25127;SDS011;13107;51.304;6.866;2023-03-21T13:13:41;9.23;;;4.25;;
25127;SDS011;13107;51.304;6.866;2023-03-21T13:22:33;7.53;;;3.85;;
25127;SDS011;13107;51.304;6.866;2023-03-21T13:26:39;9.52;;;3.70;;
25127;SDS011;13107;51.304;6.866;2023-03-21T13:30:44;7.40;;;3.75;;
25127;SDS011;13107;51.304;6.866;2023-03-21T13:34:52;9.75;;;3.37;;
25127;SDS011;13107;51.304;6.866;2023-03-21T13:47:41;9.15;;;2.87;;
25127;SDS011;13107;51.304;6.866;2023-03-21T13:51:57;6.65;;;3.15;;
25127;SDS011;13107;51.304;6.866;2023-03-21T13:56:43;9.02;;;3.80;;
25127;SDS011;13107;51.304;6.866;2023-03-21T14:00:30;6.62;;;3.37;;
25127;SDS011;13107;51.304;6.866;2023-03-21T14:04:40;4.40;;;2.78;;
25127;SDS011;13107;51.304;6.866;2023-03-21T14:09:00;7.97;;;3.12;;
25127;SDS011;13107;51.304;6.866;2023-03-21T14:13:04;7.32;;;3.58;;
25127;SDS011;13107;51.304;6.866;2023-03-21T14:17:14;6.82;;;3.22;;
25127;SDS011;13107;51.304;6.866;2023-03-21T14:21:35;8.07;;;3.53;;
25127;SDS011;13107;51.304;6.866;2023-03-21T14:25:37;7.22;;;2.95;;
25127;SDS011;13107;51.304;6.866;2023-03-21T14:29:47;7.07;;;2.97;;
25127;SDS011;13107;51.304;6.866;2023-03-21T14:33:55;6.05;;;2.78;;
25127;SDS011;13107;51.304;6.866;2023-03-21T14:38:04;6.47;;;2.90;;
25127;SDS011;13107;51.304;6.866;2023-03-21T14:42:11;7.87;;;3.17;;
25127;SDS011;13107;51.304;6.866;2023-03-21T14:46:15;7.87;;;3.30;;
25127;SDS011;13107;51.304;6.866;2023-03-21T14:50:27;5.03;;;3.28;;
25127;SDS011;13107;51.304;6.866;2023-03-21T14:54:41;7.82;;;3.42;;
25127;SDS011;13107;51.304;6.866;2023-03-21T14:58:46;8.35;;;3.78;;
25127;SDS011;13107;51.304;6.866;2023-03-21T15:02:48;7.37;;;3.15;;
25127;SDS011;13107;51.304;6.866;2023-03-21T15:06:56;7.60;;;3.35;;
25127;SDS011;13107;51.304;6.866;2023-03-21T15:11:03;6.47;;;3.50;;
25127;SDS011;13107;51.304;6.866;2023-03-21T15:15:08;6.50;;;3.45;;
25127;SDS011;13107;51.304;6.866;2023-03-21T15:19:15;6.87;;;3.17;;
25127;SDS011;13107;51.304;6.866;2023-03-21T15:23:24;10.02;;;3.42;;
25127;SDS011;13107;51.304;6.866;2023-03-21T15:31:30;5.43;;;3.10;;
25127;SDS011;13107;51.304;6.866;2023-03-21T15:35:37;7.32;;;3.00;;
25127;SDS011;13107;51.304;6.866;2023-03-21T15:39:41;8.75;;;3.53;;
25127;SDS011;13107;51.304;6.866;2023-03-21T15:43:44;7.50;;;3.80;;
25127;SDS011;13107;51.304;6.866;2023-03-21T15:56:03;6.53;;;3.12;;
25127;SDS011;13107;51.304;6.866;2023-03-21T16:04:19;5.70;;;3.15;;
25127;SDS011;13107;51.304;6.866;2023-03-21T16:08:26;8.90;;;3.47;;
25127;SDS011;13107;51.304;6.866;2023-03-21T16:12:28;5.35;;;3.37;;
25127;SDS011;13107;51.304;6.866;2023-03-21T16:16:30;7.72;;;3.28;;
25127;SDS011;13107;51.304;6.866;2023-03-21T16:20:38;7.20;;;3.47;;
25127;SDS011;13107;51.304;6.866;2023-03-21T16:24:45;6.30;;;3.50;;
25127;SDS011;13107;51.304;6.866;2023-03-21T16:28:47;6.87;;;3.28;;
25127;SDS011;13107;51.304;6.866;2023-03-21T16:32:49;6.22;;;3.40;;
25127;SDS011;13107;51.304;6.866;2023-03-21T16:36:51;9.38;;;3.83;;
25127;SDS011;13107;51.304;6.866;2023-03-21T16:40:53;6.72;;;3.12;;
25127;SDS011;13107;51.304;6.866;2023-03-21T16:44:55;7.20;;;3.70;;
25127;SDS011;13107;51.304;6.866;2023-03-21T16:48:57;6.12;;;3.53;;
25127;SDS011;13107;51.304;6.866;2023-03-21T16:52:59;7.00;;;3.87;;
25127;SDS011;13107;51.304;6.866;2023-03-21T16:57:01;5.37;;;3.45;;
25127;SDS011;13107;51.304;6.866;2023-03-21T17:01:04;7.68;;;3.85;;
25127;SDS011;13107;51.304;6.866;2023-03-21T17:05:06;8.25;;;3.78;;
25127;SDS011;13107;51.304;6.866;2023-03-21T17:09:08;7.57;;;3.30;;
25127;SDS011;13107;51.304;6.866;2023-03-21T17:13:12;6.28;;;3.70;;
25127;SDS011;13107;51.304;6.866;2023-03-21T17:17:14;6.10;;;3.58;;
25127;SDS011;13107;51.304;6.866;2023-03-21T17:21:18;6.57;;;4.00;;
25127;SDS011;13107;51.304;6.866;2023-03-21T17:25:21;6.37;;;3.25;;
25127;SDS011;13107;51.304;6.866;2023-03-21T17:29:23;9.48;;;3.83;;
25127;SDS011;13107;51.304;6.866;2023-03-21T17:33:25;6.97;;;3.58;;
25127;SDS011;13107;51.304;6.866;2023-03-21T17:37:27;7.12;;;3.42;;
25127;SDS011;13107;51.304;6.866;2023-03-21T17:41:29;6.55;;;3.53;;
25127;SDS011;13107;51.304;6.866;2023-03-21T17:45:30;6.45;;;3.40;;
25127;SDS011;13107;51.304;6.866;2023-03-21T17:49:32;8.57;;;4.43;;
25127;SDS011;13107;51.304;6.866;2023-03-21T17:53:34;7.90;;;3.05;;
25127;SDS011;13107;51.304;6.866;2023-03-21T17:57:36;9.70;;;4.30;;
25127;SDS011;13107;51.304;6.866;2023-03-21T18:01:38;7.40;;;3.67;;
25127;SDS011;13107;51.304;6.866;2023-03-21T18:05:40;8.05;;;4.35;;
25127;SDS011;13107;51.304;6.866;2023-03-21T18:09:42;5.93;;;3.90;;
25127;SDS011;13107;51.304;6.866;2023-03-21T18:13:44;7.22;;;3.78;;
25127;SDS011;13107;51.304;6.866;2023-03-21T18:17:46;11.30;;;4.55;;
25127;SDS011;13107;51.304;6.866;2023-03-21T18:21:48;9.13;;;4.53;;
25127;SDS011;13107;51.304;6.866;2023-03-21T18:25:50;7.10;;;4.05;;
25127;SDS011;13107;51.304;6.866;2023-03-21T18:29:55;7.47;;;4.12;;
25127;SDS011;13107;51.304;6.866;2023-03-21T18:34:18;11.73;;;4.12;;
25127;SDS011;13107;51.304;6.866;2023-03-21T18:38:20;10.23;;;5.85;;
25127;SDS011;13107;51.304;6.866;2023-03-21T18:42:21;7.75;;;4.93;;
25127;SDS011;13107;51.304;6.866;2023-03-21T18:46:24;7.80;;;5.18;;
25127;SDS011;13107;51.304;6.866;2023-03-21T18:50:25;9.82;;;4.55;;
25127;SDS011;13107;51.304;6.866;2023-03-21T18:54:27;8.88;;;4.40;;
25127;SDS011;13107;51.304;6.866;2023-03-21T18:58:30;8.43;;;4.28;;
25127;SDS011;13107;51.304;6.866;2023-03-21T19:02:31;8.15;;;4.25;;
25127;SDS011;13107;51.304;6.866;2023-03-21T19:06:33;7.85;;;4.80;;
25127;SDS011;13107;51.304;6.866;2023-03-21T19:10:35;7.18;;;4.45;;
25127;SDS011;13107;51.304;6.866;2023-03-21T19:14:38;7.22;;;4.78;;
25127;SDS011;13107;51.304;6.866;2023-03-21T19:18:39;9.23;;;3.90;;
25127;SDS011;13107;51.304;6.866;2023-03-21T19:22:57;7.85;;;4.18;;
25127;SDS011;13107;51.304;6.866;2023-03-21T19:26:59;8.95;;;4.37;;
25127;SDS011;13107;51.304;6.866;2023-03-21T19:31:05;5.80;;;3.78;;
25127;SDS011;13107;51.304;6.866;2023-03-21T19:35:08;8.70;;;4.03;;
25127;SDS011;13107;51.304;6.866;2023-03-21T19:39:10;9.18;;;4.62;;
25127;SDS011;13107;51.304;6.866;2023-03-21T19:43:12;7.85;;;4.07;;
25127;SDS011;13107;51.304;6.866;2023-03-21T19:47:33;4.47;;;3.55;;
25127;SDS011;13107;51.304;6.866;2023-03-21T19:51:35;6.05;;;4.10;;
25127;SDS011;13107;51.304;6.866;2023-03-21T19:55:37;6.28;;;4.43;;
25127;SDS011;13107;51.304;6.866;2023-03-21T19:59:39;10.50;;;4.95;;
25127;SDS011;13107;51.304;6.866;2023-03-21T20:03:42;8.10;;;4.50;;
25127;SDS011;13107;51.304;6.866;2023-03-21T20:07:47;8.57;;;4.45;;
25127;SDS011;13107;51.304;6.866;2023-03-21T20:11:49;8.18;;;5.07;;
25127;SDS011;13107;51.304;6.866;2023-03-21T20:15:53;9.70;;;4.80;;
25127;SDS011;13107;51.304;6.866;2023-03-21T20:19:56;9.02;;;4.68;;
25127;SDS011;13107;51.304;6.866;2023-03-21T20:24:00;7.12;;;5.12;;
25127;SDS011;13107;51.304;6.866;2023-03-21T20:28:03;10.15;;;4.62;;
25127;SDS011;13107;51.304;6.866;2023-03-21T20:32:25;10.27;;;4.93;;
25127;SDS011;13107;51.304;6.866;2023-03-21T20:36:27;11.93;;;5.30;;
25127;SDS011;13107;51.304;6.866;2023-03-21T20:40:40;8.63;;;5.03;;
25127;SDS011;13107;51.304;6.866;2023-03-21T20:44:42;7.22;;;5.03;;
25127;SDS011;13107;51.304;6.866;2023-03-21T20:49:01;8.48;;;3.60;;
25127;SDS011;13107;51.304;6.866;2023-03-21T20:53:02;8.20;;;3.37;;
25127;SDS011;13107;51.304;6.866;2023-03-21T20:57:07;7.10;;;3.28;;
25127;SDS011;13107;51.304;6.866;2023-03-21T21:01:10;5.62;;;3.17;;
25127;SDS011;13107;51.304;6.866;2023-03-21T21:05:16;6.03;;;3.03;;
25127;SDS011;13107;51.304;6.866;2023-03-21T21:09:29;5.78;;;3.35;;
25127;SDS011;13107;51.304;6.866;2023-03-21T21:13:31;7.32;;;2.90;;
25127;SDS011;13107;51.304;6.866;2023-03-21T21:17:33;6.90;;;2.67;;
25127;SDS011;13107;51.304;6.866;2023-03-21T21:21:56;4.68;;;2.60;;
25127;SDS011;13107;51.304;6.866;2023-03-21T21:25:58;8.10;;;3.20;;
25127;SDS011;13107;51.304;6.866;2023-03-21T21:30:01;4.20;;;2.70;;
25127;SDS011;13107;51.304;6.866;2023-03-21T21:34:03;3.87;;;2.50;;
25127;SDS011;13107;51.304;6.866;2023-03-21T21:38:05;5.43;;;2.50;;
25127;SDS011;13107;51.304;6.866;2023-03-21T21:42:07;4.82;;;2.67;;
25127;SDS011;13107;51.304;6.866;2023-03-21T21:46:09;5.03;;;2.78;;
25127;SDS011;13107;51.304;6.866;2023-03-21T21:50:11;5.55;;;3.00;;
25127;SDS011;13107;51.304;6.866;2023-03-21T21:54:13;7.07;;;2.78;;
25127;SDS011;13107;51.304;6.866;2023-03-21T21:58:18;6.12;;;3.00;;
25127;SDS011;13107;51.304;6.866;2023-03-21T22:02:21;7.03;;;3.35;;
25127;SDS011;13107;51.304;6.866;2023-03-21T22:06:26;5.45;;;2.97;;
25127;SDS011;13107;51.304;6.866;2023-03-21T22:10:29;7.25;;;3.30;;
25127;SDS011;13107;51.304;6.866;2023-03-21T22:14:32;6.75;;;3.15;;
25127;SDS011;13107;51.304;6.866;2023-03-21T22:18:34;5.95;;;3.10;;
25127;SDS011;13107;51.304;6.866;2023-03-21T22:22:38;8.00;;;2.90;;
25127;SDS011;13107;51.304;6.866;2023-03-21T22:26:41;5.37;;;3.05;;
25127;SDS011;13107;51.304;6.866;2023-03-21T22:30:42;5.85;;;3.15;;
25127;SDS011;13107;51.304;6.866;2023-03-21T22:34:44;5.78;;;3.10;;
25127;SDS011;13107;51.304;6.866;2023-03-21T22:38:46;5.15;;;3.42;;
25127;SDS011;13107;51.304;6.866;2023-03-21T22:42:48;9.00;;;3.42;;
25127;SDS011;13107;51.304;6.866;2023-03-21T22:46:49;5.93;;;3.33;;
25127;SDS011;13107;51.304;6.866;2023-03-21T22:50:51;6.43;;;3.37;;
25127;SDS011;13107;51.304;6.866;2023-03-21T22:54:53;8.82;;;3.78;;
25127;SDS011;13107;51.304;6.866;2023-03-21T22:58:54;8.70;;;3.35;;
25127;SDS011;13107;51.304;6.866;2023-03-21T23:02:57;9.30;;;3.70;;
25127;SDS011;13107;51.304;6.866;2023-03-21T23:07:00;7.12;;;3.80;;
25127;SDS011;13107;51.304;6.866;2023-03-21T23:11:08;10.75;;;4.15;;
25127;SDS011;13107;51.304;6.866;2023-03-21T23:15:10;8.02;;;3.62;;
25127;SDS011;13107;51.304;6.866;2023-03-21T23:19:12;9.02;;;4.03;;
25127;SDS011;13107;51.304;6.866;2023-03-21T23:23:14;8.45;;;4.03;;
25127;SDS011;13107;51.304;6.866;2023-03-21T23:27:16;8.52;;;4.15;;
25127;SDS011;13107;51.304;6.866;2023-03-21T23:31:19;8.43;;;4.53;;
25127;SDS011;13107;51.304;6.866;2023-03-21T23:35:22;7.43;;;3.85;;
25127;SDS011;13107;51.304;6.866;2023-03-21T23:39:24;6.53;;;3.85;;
25127;SDS011;13107;51.304;6.866;2023-03-21T23:43:26;8.13;;;4.03;;
25127;SDS011;13107;51.304;6.866;2023-03-21T23:47:28;8.10;;;4.20;;
25127;SDS011;13107;51.304;6.866;2023-03-21T23:51:31;8.52;;;3.97;;
25127;SDS011;13107;51.304;6.866;2023-03-21T23:55:32;8.38;;;4.43;;
25127;SDS011;13107;51.304;6.866;2023-03-21T23:59:38;8.50;;;4.72;;
